Huvudsida
METAR-TAF:

METAR-TAF

Flygplatser :

Moss flygplats. Rygge

Rygge, Norge

latitud: 59-23N, longitud: 010-47E, höjd: 5 m

Aktuellt väderrapport

Denna rapport gjordes för 22 minuter sedan, klockan 17:20 UTC
Vind 8 kt från sydväst i byarna ända upp till 19 kt, varierande mellan syd och väst
Temperatur 12°C
Fuktighet 50%
Tryck 996 hPa
Sikt 10 km eller mer
Inga moln under 1 500 m eller inga cumulonimbus

METAR: ENRY 221720Z 23008G19KT 190V260 CAVOK 12/02 Q0996

Tid: 19:42 (17:42 UTC)

Väderprognos

Prognos gäller från 22 kl. 12 UTC till 23 kl. 12 UTC
Vind 15 kt från väst/sydväst
Sikt 10 km eller mer
Inga moln under 1 500 m eller inga cumulonimbus
Temporärt
från 22 kl. 12 UTC till 22 kl. 18 UTC
Vind 18 kt från väst/sydväst i byarna ända upp till 28 kt

TAF: ENRY 2212/2312 24015KT CAVOK TEMPO 2212/2218 25018G28KT

Aktuella väderrapporter och prognoser från 4000 flygplatser (METAR- och TAF-rapporter).

De tillgängliga stationerna syns som gula och röda prickar på kartan.

För musen över prickarna för att se namnen på stationerna.

Klicka sedan för att få väderrapporter och prognoser.

För att ändra kartan: Klicka på de gröna knapparna med ett svart kors på för att zooma in; den gröna knappen med ett streck på för att zooma ut; eller på de gröna pilarna för angränsande kartor.


METAR-TAF: